x

North Nomad (46184) Wave Buoy

11:00am - Fri 31st Jul 2015 All times are AKDT. -8 hours from GMT.

  • Sig Wave height 4.6ft
  • Peak Period 14s
  • Wind
    13mph, 16mph gusts
  • Sea Temp 58°f
  • Air Temp 58°f
  • Sea Pressure 1019mb
  • North Nomad
  • North Nomad

More Historic Weather Station data

Upgrade to MSW Pro to gain access to the past 30 days of data for over 8000 Wavebouys and Weather Stations around the globe.

Join Pro

Comparision Forecast

View Surf forecast
   
Fri 07/31 11:00am 4.5ft 14s 13 16 mph 1019mb 58f 58f
10:00am 4.5ft 16s 13 18 mph 1018.6mb 58f 58f
9:00am  -   -  13
mph
- - -
8:00am 4.5ft 14s 13 18 mph 1017.9mb 58f 58f
7:00am 4.5ft 15s 13 18 mph 1017.5mb 57f 57f
6:00am 4.5ft 15s 13 18 mph 1017mb 57f 57f
5:00am 4.5ft 15s 11 13 mph 1016.6mb 57f 57f
4:00am 4.5ft 16s 11 13 mph 1016.3mb 58f 57f
3:00am 4.5ft 15s 9 13 mph 1015.9mb 58f 57f
2:00am 4.5ft 16s 9 13 mph 1015.6mb 58f 57f
1:00am 4.5ft 16s 4 7 mph 1015.3mb 58f 57f
12:00am 4.5ft 15s 9 11 mph 1015mb 58f 57f
Thu 07/30 11:00pm 4.5ft 16s 2
mph
1014.7mb 58f 57f
10:00pm 4.5ft 16s 4 7 mph 1014.5mb 58f 57f
9:00pm 4.5ft 14s 7 9 mph 1014mb 58f 57f
8:00pm 4ft 15s 2 4 mph 1013.8mb 58f 57f
7:00pm 4ft 16s 4 7 mph 1013.7mb 58f 57f
6:00pm 4ft 15s 4
mph
1013.6mb 58f 57f
5:00pm 4ft 15s 2
mph
1013.7mb 58f 57f
4:00pm 4ft 15s  -  2 mph 1013.8mb 58f 57f
3:00pm 4.5ft 15s 4 7 mph 1014.2mb 58f 57f
2:00pm 4ft 16s 7
mph
1014.4mb 58f 57f
1:00pm 3.5ft 16s 9
mph
1014.6mb 58f 56f
12:00pm 3.5ft 16s 4 7 mph 1014.8mb 58f 57f
11:00am 4ft 16s 4
mph
1014.9mb 57f 56f
10:00am 4ft 16s 7 9 mph 1014.8mb 57f 56f
9:00am 4ft 16s 7 9 mph 1015.1mb 57f 56f
8:00am 4.5ft 16s 9 11 mph 1015.5mb 57f 55f
7:00am 4.5ft 16s 9
mph
1016mb 57f 55f
6:00am 4.5ft 16s 9
mph
1016.4mb 57f 55f
5:00am 4.5ft 15s 7 9 mph 1016.6mb 57f 55f
4:00am 5ft 16s 4 7 mph 1017mb 57f 55f
3:00am 5ft 17s 2 4 mph 1017.4mb 57f 55f
2:00am 4.5ft 17s 2 4 mph 1017.7mb 57f 56f
1:00am 4.5ft 15s 4
mph
1018mb 57f 56f
12:00am 4.5ft 17s 4
mph
1017.8mb 57f 56f
Wed 07/29 11:00pm 4.5ft 15s 7 9 mph 1017.7mb 57f 56f
10:00pm 4ft 16s 7 9 mph 1018.1mb 57f 56f
9:00pm 4.5ft 16s 9
mph
1018.1mb 57f 56f
8:00pm 4.5ft 17s 9 11 mph 1018.3mb 58f 56f
7:00pm 5ft 16s 9 11 mph 1018.7mb 58f 56f
6:00pm 5ft 17s 9 11 mph 1019mb 58f 56f
5:00pm 5.5ft 16s 9 11 mph 1019.4mb 58f 56f
4:00pm 5ft 16s 9 11 mph 1020mb 58f 56f
3:00pm 5.5ft 17s 9 11 mph 1020.6mb 58f 57f
2:00pm 6ft 17s 9 11 mph 1020.8mb 57f 56f
1:00pm 5.5ft 16s 9 11 mph 1020.9mb 57f 55f
12:00pm 5.5ft 17s 16 18 mph 1020.9mb 57f 55f
11:00am 5.5ft 17s 16 20 mph 1020.6mb 57f 55f
10:00am 5ft 16s 13 16 mph 1020.5mb 57f 55f
9:00am 5ft 17s 13 16 mph 1020.6mb 57f 55f
7:00am 6ft 17s 13 16 mph 1020.5mb 58f 55f
6:00am 5.5ft 18s 18 22 mph 1020.3mb 58f 55f
5:00am 6ft 8s 16 20 mph 1020.3mb 58f 55f
4:00am 6ft 8s 16 22 mph 1020.3mb 58f 55f
3:00am 6ft 17s 13 18 mph 1020.3mb 58f 55f
2:00am 6ft 8s 13 16 mph 1020.3mb 58f 55f
1:00am 6.5ft 8s 18 22 mph 1020.2mb 58f 55f
12:00am 6ft 8s 16 20 mph 1020.4mb 57f 54f
Tue 07/28 11:00pm 6ft 8s 18 22 mph 1020.2mb 57f 55f
10:00pm 6ft 8s 13 18 mph 1020mb 57f 55f
9:00pm 6ft 8s 16 18 mph 1019.8mb 57f 55f
8:00pm 6ft 8s 18 20 mph 1019.5mb 57f 56f
7:00pm 6ft 18s 13 18 mph 1019.7mb 58f 54f
6:00pm 6ft 8s 13 18 mph 1019.5mb 58f 55f
5:00pm 6.5ft 9s 16 18 mph 1019.5mb 58f 56f
4:00pm 7ft 8s 16 18 mph 1019.4mb 58f 56f
3:00pm 6.5ft 9s 18 20 mph 1019.1mb 58f 55f
2:00pm 6.5ft 7s 18 20 mph 1018.6mb 58f 55f
1:00pm 6.5ft 9s 18 22 mph 1018.3mb 58f 56f
12:00pm 7ft 9s 18 22 mph 1018.2mb 58f 54f
11:00am 6ft 9s 18 22 mph 1017.8mb 58f 55f
10:00am 7ft 8s 18 29 mph 1017.5mb 57f 55f
9:00am 7ft 9s 18 20 mph 1017.4mb 57f 55f
8:00am 7ft 9s 16 20 mph 1017.1mb 57f 55f
7:00am 7ft 9s 18 20 mph 1017mb 57f 55f
6:00am 7.5ft 7s 18 22 mph 1016.6mb 57f 55f
5:00am 7.5ft 8s 18 22 mph 1016.5mb 58f 56f
4:00am 8ft 8s 13 18 mph 1016.5mb 58f 54f
3:00am 8.5ft 10s 16 18 mph 1016.5mb 58f 54f
2:00am 8ft 10s 16 20 mph 1016.2mb 58f 56f
1:00am 8.5ft 9s 22 25 mph 1015.9mb 58f 56f
12:00am 9ft 8s 22 27 mph 1015.6mb 58f 55f
Mon 07/27 11:00pm 8ft 9s 18 22 mph 1015.4mb 58f 56f
10:00pm 9ft 8s 20 22 mph 1015.1mb 58f 56f
9:00pm 8.5ft 10s 20 25 mph 1014.5mb 58f 56f